createdAt,value
2022-12-04T00:04:01.331Z,97377.75
2022-12-04T00:09:05.590Z,97378.84
2022-12-04T00:14:07.990Z,97389.28
2022-12-04T00:19:10.408Z,97392.06
2022-12-04T00:24:13.652Z,97399.50
2022-12-04T00:29:15.646Z,97396.78
2022-12-04T00:34:17.750Z,97391.00
2022-12-04T00:39:21.054Z,97387.94
2022-12-04T00:44:22.976Z,97374.69
2022-12-04T00:49:24.891Z,97371.97
2022-12-04T00:54:28.151Z,97372.41
2022-12-04T00:59:30.048Z,97384.06
2022-12-04T01:04:32.021Z,97374.75
2022-12-04T01:09:35.280Z,97367.00
2022-12-04T01:14:37.233Z,97366.13
2022-12-04T01:19:40.771Z,97375.72
2022-12-04T01:24:44.050Z,97371.19
2022-12-04T01:29:46.086Z,97363.53
2022-12-04T01:34:48.053Z,97363.13
2022-12-04T01:39:51.310Z,97356.84
2022-12-04T01:45:26.648Z,97357.63
2022-12-04T01:50:29.123Z,97350.66
2022-12-04T01:55:32.587Z,97349.91
2022-12-04T02:00:34.516Z,97340.59
2022-12-04T02:05:36.497Z,97347.09
2022-12-04T02:10:46.080Z,97351.84
2022-12-04T02:15:54.268Z,97336.78
2022-12-04T02:21:06.381Z,97335.63
2022-12-04T02:26:25.898Z,97339.09
2022-12-04T02:31:35.313Z,97345.22
2022-12-04T02:36:43.146Z,97344.44
2022-12-04T02:41:51.228Z,97341.25
2022-12-04T02:46:57.681Z,97335.88
2022-12-04T02:52:01.437Z,97339.34
2022-12-04T02:57:07.183Z,97316.84
2022-12-04T03:02:15.681Z,97319.44
2022-12-04T03:07:23.083Z,97320.06
2022-12-04T03:12:30.146Z,97336.25
2022-12-04T03:17:38.639Z,97318.91
2022-12-04T03:22:43.987Z,97321.25
2022-12-04T03:27:52.266Z,97319.31
2022-12-04T03:33:00.024Z,97316.56
2022-12-04T03:38:05.015Z,97316.50
2022-12-04T03:43:13.444Z,97326.59
2022-12-04T03:48:23.334Z,97315.63
2022-12-04T03:53:32.338Z,97319.66
2022-12-04T03:58:38.062Z,97306.16
2022-12-04T04:03:44.801Z,97305.78
2022-12-04T04:08:50.872Z,97305.06
2022-12-04T04:14:17.343Z,97298.81
2022-12-04T04:19:40.935Z,97294.19
2022-12-04T04:24:45.801Z,97295.78
2022-12-04T04:29:52.364Z,97294.19
2022-12-04T04:35:03.585Z,97296.53
2022-12-04T04:40:15.344Z,97299.97
2022-12-04T04:45:22.034Z,97302.97
2022-12-04T04:50:26.826Z,97317.38
2022-12-04T04:55:34.304Z,97314.94
2022-12-04T05:00:37.068Z,97328.06
2022-12-04T05:05:40.317Z,97317.31
2022-12-04T05:10:42.253Z,97321.22
2022-12-04T05:15:44.521Z,97324.63
2022-12-04T05:20:47.819Z,97307.16
2022-12-04T05:25:49.793Z,97300.63
2022-12-04T05:30:54.956Z,97302.56
2022-12-04T05:35:59.025Z,97305.19
2022-12-04T05:41:02.247Z,97298.59
2022-12-04T05:46:05.378Z,97300.13
2022-12-04T05:51:10.038Z,97296.34
2022-12-04T05:56:12.000Z,97300.72
2022-12-04T06:01:16.290Z,97309.81
2022-12-04T06:06:22.627Z,97309.25
2022-12-04T06:11:27.189Z,97324.09
2022-12-04T06:16:31.048Z,97321.78
2022-12-04T06:21:36.918Z,97311.38
2022-12-04T06:26:52.037Z,97307.34
2022-12-04T06:32:00.903Z,97311.53
2022-12-04T06:37:04.274Z,97322.03
2022-12-04T06:42:06.254Z,97318.25
2022-12-04T06:47:09.095Z,97322.63
2022-12-04T06:52:12.430Z,97312.06
2022-12-04T06:57:14.446Z,97324.09
2022-12-04T07:02:16.391Z,97319.56
2022-12-04T07:07:20.305Z,97331.91
2022-12-04T07:12:22.201Z,97323.81
2022-12-04T07:17:24.137Z,97326.50
2022-12-04T07:22:28.186Z,97329.91
2022-12-04T07:27:30.167Z,97332.25
2022-12-04T07:32:32.295Z,97319.63
2022-12-04T07:37:36.881Z,97330.00
2022-12-04T07:42:38.834Z,97344.25
2022-12-04T07:47:40.780Z,97347.38
2022-12-04T07:52:44.083Z,97330.88
2022-12-04T07:57:46.015Z,97346.78
2022-12-04T08:02:49.357Z,97347.22
2022-12-04T08:07:52.654Z,97346.38
2022-12-04T08:12:54.592Z,97347.19
2022-12-04T08:17:56.579Z,97344.59
2022-12-04T08:22:59.872Z,97336.44
2022-12-04T08:28:01.810Z,97348.97
2022-12-04T08:33:03.783Z,97366.06
2022-12-04T08:38:07.536Z,97358.31
2022-12-04T08:43:09.468Z,97361.53
2022-12-04T08:48:11.439Z,97353.00
2022-12-04T08:53:14.720Z,97353.97
2022-12-04T08:58:17.541Z,97360.72
2022-12-04T09:03:24.758Z,97351.19
2022-12-04T09:08:31.463Z,97338.66
2022-12-04T09:13:33.713Z,97330.56
2022-12-04T09:18:36.822Z,97333.72
2022-12-04T09:23:40.988Z,97340.31
2022-12-04T09:28:42.912Z,97329.13
2022-12-04T09:33:45.550Z,97334.19
2022-12-04T09:38:50.360Z,97343.41
2022-12-04T09:43:57.855Z,97337.16
2022-12-04T09:49:04.805Z,97336.50
2022-12-04T09:54:14.223Z,97337.34
2022-12-04T09:59:22.210Z,97332.09
2022-12-04T10:04:24.919Z,97326.75
2022-12-04T10:09:36.224Z,97330.19
2022-12-04T10:15:01.805Z,97333.63
2022-12-04T10:20:17.446Z,97331.22
2022-12-04T10:25:22.695Z,97321.00
2022-12-04T10:30:27.436Z,97311.91
2022-12-04T10:35:31.020Z,97321.00
2022-12-04T10:40:41.510Z,97317.25
2022-12-04T10:45:43.526Z,97302.72
2022-12-04T10:50:45.575Z,97303.91
2022-12-04T10:55:48.898Z,97303.53
2022-12-04T11:01:02.389Z,97305.28
2022-12-04T11:06:06.392Z,97298.56
2022-12-04T11:11:12.841Z,97297.25
2022-12-04T11:16:33.556Z,97296.03
2022-12-04T11:21:35.563Z,97296.22
2022-12-04T11:26:42.590Z,97298.78
2022-12-04T11:31:49.053Z,97296.25
2022-12-04T11:36:53.812Z,97302.47
2022-12-04T11:42:02.807Z,97305.69
2022-12-04T11:47:06.806Z,97288.59
2022-12-04T11:52:20.191Z,97287.34
2022-12-04T11:57:31.983Z,97293.06
2022-12-04T12:02:57.980Z,97287.34
2022-12-04T12:08:08.795Z,97285.91
2022-12-04T12:13:22.845Z,97301.19
2022-12-04T12:18:42.047Z,97304.91
2022-12-04T12:24:00.137Z,97288.50
2022-12-04T12:29:17.370Z,97295.78
2022-12-04T12:34:30.143Z,97299.53
2022-12-04T12:39:40.235Z,97296.31
2022-12-04T12:44:53.424Z,97288.84
2022-12-04T12:49:59.331Z,97280.22
2022-12-04T12:55:13.243Z,97271.53
2022-12-04T13:00:19.829Z,97276.34
2022-12-04T13:05:26.491Z,97278.44
2022-12-04T13:10:33.815Z,97289.13
2022-12-04T13:15:41.524Z,97284.06
2022-12-04T13:20:50.884Z,97281.22
2022-12-04T13:25:59.770Z,97274.44
2022-12-04T13:31:14.188Z,97274.34
2022-12-04T13:36:52.929Z,97285.56
2022-12-04T13:41:58.827Z,97287.88
2022-12-04T13:47:04.806Z,97278.16
2022-12-04T13:52:23.095Z,97279.38
2022-12-04T13:57:27.347Z,97274.34
2022-12-04T14:02:35.275Z,97280.88
2022-12-04T14:07:39.922Z,97276.56
2022-12-04T14:12:49.881Z,97280.78
2022-12-04T14:18:01.174Z,97277.75
2022-12-04T14:23:26.404Z,97284.78
2022-12-04T14:28:42.580Z,97275.78
2022-12-04T14:33:49.373Z,97275.78
2022-12-04T14:39:03.054Z,97276.69
2022-12-04T14:44:05.507Z,97269.78
2022-12-04T14:49:27.112Z,97281.50
2022-12-04T14:54:40.549Z,97274.41
2022-12-04T14:59:45.353Z,97277.59
2022-12-04T15:04:50.785Z,97277.78
2022-12-04T15:10:15.924Z,97277.72
2022-12-04T15:15:24.798Z,97283.56
2022-12-04T15:20:37.449Z,97269.22
2022-12-04T15:25:45.608Z,97274.63
2022-12-04T15:30:49.568Z,97273.06
2022-12-04T15:35:57.098Z,97265.28
2022-12-04T15:41:00.785Z,97264.59
2022-12-04T15:46:12.976Z,97270.50
2022-12-04T15:51:20.524Z,97276.28
2022-12-04T15:56:23.698Z,97291.00
2022-12-04T16:01:26.361Z,97286.72
2022-12-04T16:06:32.065Z,97288.28
2022-12-04T16:11:37.053Z,97294.53
2022-12-04T16:16:43.788Z,97293.34
2022-12-04T16:21:47.574Z,97288.72
2022-12-04T16:26:51.177Z,97292.63
2022-12-04T16:31:57.040Z,97282.19
2022-12-04T16:37:12.220Z,97281.44
2022-12-04T16:42:17.377Z,97275.63
2022-12-04T16:47:19.692Z,97274.09
2022-12-04T16:52:23.165Z,97281.84
2022-12-04T16:57:25.289Z,97283.00
2022-12-04T17:02:27.607Z,97287.66
2022-12-04T17:07:31.094Z,97277.19
2022-12-04T17:12:33.051Z,97288.84
2022-12-04T17:17:35.153Z,97295.03
2022-12-04T17:22:38.902Z,97288.84
2022-12-04T17:27:40.921Z,97291.91
2022-12-04T17:32:42.906Z,97302.41
2022-12-04T17:37:46.346Z,97295.41
2022-12-04T17:42:48.326Z,97303.53
2022-12-04T17:47:50.610Z,97302.00
2022-12-04T17:52:53.937Z,97300.47
2022-12-04T17:57:55.982Z,97313.63
2022-12-04T18:02:58.200Z,97305.50
2022-12-04T18:08:01.678Z,97300.06
2022-12-04T18:13:03.936Z,97306.25
2022-12-04T18:18:05.925Z,97306.28
2022-12-04T18:23:09.190Z,97307.44
2022-12-04T18:28:11.391Z,97307.81
2022-12-04T18:33:17.561Z,97313.63
2022-12-04T18:38:22.929Z,97307.41
2022-12-04T18:43:24.903Z,97308.19
2022-12-04T18:48:27.405Z,97296.97
2022-12-04T18:53:30.778Z,97305.88
2022-12-04T18:58:32.891Z,97299.66
2022-12-04T19:03:35.372Z,97305.09
2022-12-04T19:08:43.039Z,97303.56
2022-12-04T19:13:45.534Z,97302.75
2022-12-04T19:18:47.637Z,97300.44
2022-12-04T19:23:54.857Z,97283.78
2022-12-04T19:28:57.830Z,97295.78
2022-12-04T19:34:00.719Z,97298.50
2022-12-04T19:39:05.188Z,97302.75
2022-12-04T19:44:39.661Z,97305.88
2022-12-04T19:49:29.291Z,97301.19
2022-12-04T19:54:32.595Z,97299.63
2022-12-04T19:59:38.602Z,97293.00
2022-12-04T20:04:43.270Z,97291.06
2022-12-04T20:09:52.108Z,97302.75
2022-12-04T20:14:54.523Z,97294.94
2022-12-04T20:19:56.808Z,97305.84
2022-12-04T20:25:00.217Z,97305.44
2022-12-04T20:30:02.248Z,97314.78
2022-12-04T20:35:04.759Z,97314.75
2022-12-04T20:40:09.130Z,97310.84
2022-12-04T20:45:11.583Z,97304.25
2022-12-04T20:50:13.520Z,97306.56
2022-12-04T20:55:17.054Z,97305.75
2022-12-04T21:00:19.268Z,97303.41
2022-12-04T21:05:21.215Z,97287.84
2022-12-04T21:10:24.531Z,97292.94
2022-12-04T21:15:45.136Z,97299.91
2022-12-04T21:20:47.219Z,97286.00
2022-12-04T21:25:50.492Z,97294.78
2022-12-04T21:30:52.503Z,97295.94
2022-12-04T21:35:54.604Z,97305.63
2022-12-04T21:40:57.874Z,97300.97
2022-12-04T21:46:05.846Z,97289.31
2022-12-04T21:51:32.746Z,97292.81
2022-12-04T21:56:34.361Z,97288.50
2022-12-04T22:01:36.887Z,97289.66
2022-12-04T22:06:39.021Z,97287.69
2022-12-04T22:11:42.473Z,97279.91
2022-12-04T22:16:44.454Z,97283.75
2022-12-04T22:21:46.476Z,97268.16
2022-12-04T22:26:49.846Z,97259.19
2022-12-04T22:31:51.890Z,97257.59
2022-12-04T22:36:53.958Z,97255.25
2022-12-04T22:41:57.281Z,97245.59
2022-12-04T22:46:59.288Z,97253.38
2022-12-04T22:52:01.262Z,97258.03
2022-12-04T22:57:04.996Z,97246.34
2022-12-04T23:02:06.914Z,97236.38
2022-12-04T23:07:09.159Z,97233.97
2022-12-04T23:12:12.448Z,97233.19
2022-12-04T23:17:14.398Z,97228.50
2022-12-04T23:22:16.331Z,97224.19
2022-12-04T23:27:19.589Z,97223.88
2022-12-04T23:32:21.577Z,97224.66
2022-12-04T23:37:23.467Z,97229.59
2022-12-04T23:42:30.749Z,97233.00
2022-12-04T23:47:32.947Z,97230.72
2022-12-04T23:52:34.880Z,97222.31
2022-12-04T23:57:38.164Z,97207.59
